createdAt,value
2023-02-02T00:03:55.975Z,86.93
2023-02-02T00:09:58.004Z,84.13
2023-02-02T00:16:17.813Z,83.41
2023-02-02T00:22:19.748Z,83.24
2023-02-02T00:28:21.619Z,82.28
2023-02-02T00:34:24.384Z,80.94
2023-02-02T00:40:26.337Z,80.88
2023-02-02T00:46:28.334Z,81.23
2023-02-02T00:52:30.245Z,80.93
2023-02-02T00:58:32.121Z,81.57
2023-02-02T01:04:34.021Z,80.40
2023-02-02T01:10:36.458Z,80.20
2023-02-02T01:16:38.359Z,81.32
2023-02-02T01:22:40.264Z,80.95
2023-02-02T01:28:42.443Z,80.90
2023-02-02T01:34:44.341Z,81.75
2023-02-02T01:40:50.475Z,82.08
2023-02-02T01:46:52.413Z,82.32
2023-02-02T01:52:58.561Z,82.00
2023-02-02T01:59:01.279Z,82.47
2023-02-02T02:05:04.867Z,82.82
2023-02-02T02:11:07.439Z,82.49
2023-02-02T02:18:04.436Z,82.00
2023-02-02T02:24:48.494Z,82.69
2023-02-02T02:31:18.320Z,82.86
2023-02-02T02:37:47.809Z,83.04
2023-02-02T02:44:05.612Z,82.91
2023-02-02T02:50:08.570Z,83.80
2023-02-02T02:56:31.977Z,83.65
2023-02-02T03:03:07.019Z,83.74
2023-02-02T03:09:19.548Z,85.26
2023-02-02T03:15:21.891Z,84.50
2023-02-02T03:21:23.973Z,84.43
2023-02-02T03:27:27.428Z,84.19
2023-02-02T03:33:33.220Z,84.16
2023-02-02T03:39:35.106Z,85.07
2023-02-02T03:45:37.348Z,84.30
2023-02-02T03:51:39.273Z,83.81
2023-02-02T03:57:41.171Z,84.62
2023-02-02T04:03:43.273Z,84.30
2023-02-02T04:09:45.159Z,85.34
2023-02-02T04:15:47.136Z,85.50
2023-02-02T04:21:49.080Z,85.25
2023-02-02T04:27:51.020Z,86.16
2023-02-02T04:33:52.969Z,86.73
2023-02-02T04:39:55.371Z,86.84
2023-02-02T04:45:57.705Z,86.71
2023-02-02T04:51:59.619Z,86.98
2023-02-02T04:58:01.550Z,87.11
2023-02-02T05:04:03.666Z,87.03
2023-02-02T05:10:07.034Z,87.11
2023-02-02T05:16:09.015Z,87.71
2023-02-02T05:22:10.975Z,87.87
2023-02-02T05:28:12.858Z,88.45
2023-02-02T05:34:14.915Z,88.78
2023-02-02T05:40:17.229Z,88.87
2023-02-02T05:46:19.237Z,88.59
2023-02-02T05:52:24.884Z,89.61
2023-02-02T05:58:28.059Z,89.54
2023-02-02T06:04:30.012Z,89.48
2023-02-02T06:10:31.954Z,89.46
2023-02-02T06:16:33.853Z,89.49
2023-02-02T06:22:35.791Z,89.06
2023-02-02T06:28:37.696Z,88.72
2023-02-02T06:34:39.589Z,89.08
2023-02-02T06:40:41.443Z,88.64
2023-02-02T06:46:43.528Z,89.41
2023-02-02T06:52:53.132Z,88.92
2023-02-02T06:58:55.022Z,89.15
2023-02-02T07:04:56.909Z,89.31
2023-02-02T07:11:12.783Z,88.57
2023-02-02T07:17:17.534Z,89.31
2023-02-02T07:23:19.422Z,88.44
2023-02-02T07:29:21.353Z,87.35
2023-02-02T07:35:23.865Z,85.02
2023-02-02T07:41:25.927Z,82.40
2023-02-02T07:47:27.966Z,83.45
2023-02-02T07:53:30.373Z,84.72
2023-02-02T07:59:32.621Z,84.17
2023-02-02T08:05:35.028Z,85.63
2023-02-02T08:11:38.457Z,86.33
2023-02-02T08:17:44.102Z,87.12
2023-02-02T08:23:46.794Z,87.50
2023-02-02T08:29:48.697Z,88.67
2023-02-02T08:35:50.737Z,89.05
2023-02-02T08:41:56.517Z,89.24
2023-02-02T08:48:10.904Z,89.25
2023-02-02T08:54:13.944Z,89.76
2023-02-02T09:00:16.547Z,88.91
2023-02-02T09:06:20.687Z,89.22
2023-02-02T09:12:22.608Z,89.42
2023-02-02T09:18:24.524Z,90.31
2023-02-02T09:24:26.478Z,90.90
2023-02-02T09:30:28.612Z,90.94
2023-02-02T09:36:31.591Z,91.09
2023-02-02T09:42:56.849Z,90.58
2023-02-02T09:49:06.277Z,90.36
2023-02-02T09:55:35.609Z,89.78
2023-02-02T10:01:42.778Z,90.37
2023-02-02T10:07:51.822Z,90.01
2023-02-02T10:13:59.691Z,89.34
2023-02-02T10:20:33.499Z,89.67
2023-02-02T10:26:45.623Z,88.45
2023-02-02T10:33:05.048Z,90.01
2023-02-02T10:39:23.335Z,89.91
2023-02-02T10:45:25.599Z,89.99
2023-02-02T10:51:29.162Z,89.92
2023-02-02T10:58:28.977Z,91.01
2023-02-02T11:04:49.990Z,89.91
2023-02-02T11:10:56.916Z,88.66
2023-02-02T11:17:16.305Z,88.31
2023-02-02T11:23:28.217Z,88.95
2023-02-02T11:29:39.860Z,89.20
2023-02-02T11:35:56.502Z,90.41
2023-02-02T11:42:13.248Z,91.63
2023-02-02T11:48:22.904Z,90.62
2023-02-02T11:54:31.353Z,91.83
2023-02-02T12:00:33.331Z,91.34
2023-02-02T12:06:37.539Z,91.00
2023-02-02T12:13:28.382Z,91.04
2023-02-02T12:19:54.088Z,90.66
2023-02-02T12:26:11.852Z,89.54
2023-02-02T12:32:49.934Z,89.29
2023-02-02T12:39:51.227Z,88.95
2023-02-02T12:46:29.333Z,88.51
2023-02-02T12:52:58.715Z,88.04
2023-02-02T12:59:48.366Z,89.69
2023-02-02T13:06:14.647Z,89.33
2023-02-02T13:12:23.753Z,89.28
2023-02-02T13:18:31.990Z,89.34
2023-02-02T13:24:38.688Z,89.78
2023-02-02T13:30:41.486Z,89.08
2023-02-02T13:36:50.775Z,89.75
2023-02-02T13:43:17.714Z,89.20
2023-02-02T13:49:25.719Z,87.95
2023-02-02T13:55:53.324Z,87.98
2023-02-02T14:01:58.506Z,87.11
2023-02-02T14:08:16.004Z,87.91
2023-02-02T14:14:31.873Z,87.35
2023-02-02T14:20:49.156Z,87.70
2023-02-02T14:27:00.235Z,87.61
2023-02-02T14:33:37.352Z,88.22
2023-02-02T14:40:06.127Z,89.75
2023-02-02T14:46:13.925Z,89.67
2023-02-02T14:52:22.933Z,90.56
2023-02-02T14:59:07.510Z,90.01
2023-02-02T15:05:34.108Z,91.27
2023-02-02T15:12:06.601Z,90.53
2023-02-02T15:18:17.003Z,91.07
2023-02-02T15:24:25.952Z,91.23
2023-02-02T15:30:34.496Z,91.82
2023-02-02T15:36:41.234Z,91.57
2023-02-02T15:42:54.922Z,92.13
2023-02-02T15:49:35.810Z,92.69
2023-02-02T15:55:37.947Z,92.71
2023-02-02T16:01:53.043Z,92.76
2023-02-02T16:08:04.913Z,92.77
2023-02-02T16:14:17.706Z,93.59
2023-02-02T16:20:20.304Z,93.84
2023-02-02T16:26:28.985Z,93.70
2023-02-02T16:32:33.333Z,94.05
2023-02-02T16:38:37.404Z,93.68
2023-02-02T16:44:45.317Z,93.82
2023-02-02T16:51:02.208Z,95.45
2023-02-02T16:57:05.221Z,95.69
2023-02-02T17:03:12.827Z,96.47
2023-02-02T17:09:34.598Z,96.95
2023-02-02T17:15:37.375Z,97.68
2023-02-02T17:21:39.580Z,97.52
2023-02-02T17:27:41.502Z,97.66
2023-02-02T17:33:43.644Z,97.78
2023-02-02T17:39:45.644Z,97.91
2023-02-02T17:45:47.804Z,98.26
2023-02-02T17:51:50.677Z,98.17
2023-02-02T17:57:53.945Z,97.66
2023-02-02T18:03:56.123Z,98.36
2023-02-02T18:09:58.115Z,98.33
2023-02-02T18:16:00.195Z,97.68
2023-02-02T18:22:02.458Z,98.13
2023-02-02T18:28:04.443Z,98.11
2023-02-02T18:34:06.335Z,98.33
2023-02-02T18:40:09.388Z,98.48
2023-02-02T18:46:13.843Z,98.28
2023-02-02T18:52:15.839Z,97.77
2023-02-02T18:58:17.775Z,97.78
2023-02-02T19:04:19.713Z,97.94
2023-02-02T19:10:25.945Z,98.40
2023-02-02T19:16:34.036Z,98.45
2023-02-02T19:22:35.939Z,97.86
2023-02-02T19:28:39.758Z,98.13
2023-02-02T19:34:41.724Z,98.05
2023-02-02T19:40:44.883Z,98.30
2023-02-02T19:46:52.828Z,98.77
2023-02-02T19:52:55.729Z,98.87
2023-02-02T19:58:59.016Z,98.59
2023-02-02T20:05:22.112Z,98.84
2023-02-02T20:11:35.566Z,99.06
2023-02-02T20:17:38.907Z,99.08
2023-02-02T20:23:45.784Z,99.54
2023-02-02T20:29:50.540Z,98.92
2023-02-02T20:35:53.008Z,100.00
2023-02-02T20:41:57.203Z,100.00
2023-02-02T20:47:59.093Z,99.73
2023-02-02T20:54:00.991Z,100.00
2023-02-02T21:00:03.131Z,100.00
2023-02-02T21:06:05.286Z,100.00
2023-02-02T21:12:07.316Z,100.00
2023-02-02T21:18:09.281Z,100.00
2023-02-02T21:24:11.255Z,100.00
2023-02-02T21:30:14.209Z,100.00
2023-02-02T21:36:38.057Z,100.00
2023-02-02T21:42:48.738Z,100.00
2023-02-02T21:48:50.691Z,100.00
2023-02-02T21:54:52.602Z,100.00
2023-02-02T22:00:59.497Z,100.00
2023-02-02T22:07:12.647Z,100.00
2023-02-02T22:13:23.235Z,100.00
2023-02-02T22:19:32.502Z,100.00
2023-02-02T22:25:37.243Z,100.00
2023-02-02T22:31:39.204Z,100.00
2023-02-02T22:37:41.183Z,100.00
2023-02-02T22:43:43.080Z,100.00
2023-02-02T22:49:44.968Z,100.00
2023-02-02T22:55:46.914Z,100.00
2023-02-02T23:01:48.856Z,100.00
2023-02-02T23:07:52.031Z,100.00
2023-02-02T23:13:53.951Z,100.00
2023-02-02T23:19:55.853Z,100.00
2023-02-02T23:25:57.754Z,100.00
2023-02-02T23:31:59.739Z,100.00
2023-02-02T23:38:01.674Z,100.00
2023-02-02T23:44:03.940Z,100.00
2023-02-02T23:50:09.103Z,100.00
2023-02-02T23:56:11.029Z,100.00
